createdAt,value
2022-07-25T00:03:41.979Z,21.46
2022-07-25T00:07:39.979Z,21.46
2022-07-25T00:11:37.891Z,21.51
2022-07-25T00:15:35.021Z,21.36
2022-07-25T00:19:32.104Z,21.17
2022-07-25T00:23:29.331Z,21.19
2022-07-25T00:27:26.616Z,20.83
2022-07-25T00:31:26.191Z,21.14
2022-07-25T00:35:23.273Z,21.03
2022-07-25T00:39:20.363Z,20.96
2022-07-25T00:43:17.432Z,20.82
2022-07-25T00:47:14.499Z,20.76
2022-07-25T00:51:12.086Z,20.62
2022-07-25T00:55:09.953Z,20.67
2022-07-25T00:59:07.292Z,20.57
2022-07-25T01:03:07.134Z,20.69
2022-07-25T01:07:04.586Z,20.56
2022-07-25T01:11:01.937Z,20.53
2022-07-25T01:14:59.232Z,20.47
2022-07-25T01:18:56.449Z,20.37
2022-07-25T01:22:54.682Z,20.29
2022-07-25T01:26:52.026Z,20.21
2022-07-25T01:30:49.516Z,20.06
2022-07-25T01:34:46.545Z,20.22
2022-07-25T01:38:43.709Z,20.28
2022-07-25T01:42:41.716Z,20.29
2022-07-25T01:46:38.794Z,20.18
2022-07-25T01:50:36.004Z,20.28
2022-07-25T01:54:33.085Z,20.26
2022-07-25T01:58:30.197Z,20.21
2022-07-25T02:02:27.504Z,20.21
2022-07-25T02:06:24.584Z,20.20
2022-07-25T02:10:21.570Z,20.03
2022-07-25T02:14:18.721Z,19.90
2022-07-25T02:18:16.370Z,19.88
2022-07-25T02:22:13.391Z,19.85
2022-07-25T02:26:13.217Z,19.84
2022-07-25T02:30:10.911Z,19.93
2022-07-25T02:34:08.500Z,20.00
2022-07-25T02:38:05.794Z,19.84
2022-07-25T02:42:02.952Z,19.67
2022-07-25T02:46:00.212Z,19.50
2022-07-25T02:49:57.482Z,19.56
2022-07-25T02:53:57.904Z,19.55
2022-07-25T02:57:55.707Z,19.53
2022-07-25T03:01:52.757Z,19.44
2022-07-25T03:05:51.959Z,19.46
2022-07-25T03:09:49.194Z,19.39
2022-07-25T03:13:46.763Z,19.46
2022-07-25T03:17:43.929Z,18.93
2022-07-25T03:21:41.054Z,19.28
2022-07-25T03:25:38.168Z,19.19
2022-07-25T03:29:35.336Z,19.17
2022-07-25T03:33:32.366Z,19.22
2022-07-25T03:37:29.552Z,19.14
2022-07-25T03:41:28.010Z,19.21
2022-07-25T03:45:25.774Z,19.12
2022-07-25T03:49:23.065Z,19.13
2022-07-25T03:53:20.073Z,19.12
2022-07-25T03:57:17.130Z,19.16
2022-07-25T04:01:14.375Z,19.18
2022-07-25T04:05:11.587Z,19.15
2022-07-25T04:09:10.877Z,19.12
2022-07-25T04:13:10.095Z,19.17
2022-07-25T04:17:07.255Z,19.13
2022-07-25T04:21:06.392Z,19.08
2022-07-25T04:25:04.553Z,19.11
2022-07-25T04:29:03.701Z,19.14
2022-07-25T04:33:00.861Z,19.17
2022-07-25T04:36:57.871Z,19.11
2022-07-25T04:40:54.992Z,19.18
2022-07-25T04:44:51.990Z,18.91
2022-07-25T04:48:50.526Z,19.05
2022-07-25T04:52:47.783Z,19.03
2022-07-25T04:56:44.826Z,19.12
2022-07-25T05:00:42.043Z,19.01
2022-07-25T05:04:44.795Z,19.24
2022-07-25T05:08:42.413Z,19.38
2022-07-25T05:12:39.573Z,19.39
2022-07-25T05:16:36.656Z,19.77
2022-07-25T05:20:33.778Z,19.87
2022-07-25T05:24:35.197Z,20.09
2022-07-25T05:28:32.281Z,20.17
2022-07-25T05:32:29.387Z,20.31
2022-07-25T05:36:26.392Z,20.64
2022-07-25T05:40:24.347Z,20.56
2022-07-25T05:44:21.418Z,20.77
2022-07-25T05:48:18.598Z,20.97
2022-07-25T05:52:15.721Z,21.31
2022-07-25T05:56:12.704Z,21.35
2022-07-25T06:00:12.817Z,21.55
2022-07-25T06:04:10.348Z,21.61
2022-07-25T06:08:07.412Z,21.78
2022-07-25T06:12:05.081Z,22.05
2022-07-25T06:16:03.408Z,22.39
2022-07-25T06:20:00.777Z,22.59
2022-07-25T06:23:57.823Z,22.65
2022-07-25T06:27:54.813Z,23.04
2022-07-25T06:31:51.948Z,23.26
2022-07-25T06:35:51.245Z,23.49
2022-07-25T06:39:48.362Z,23.84
2022-07-25T06:43:45.345Z,23.98
2022-07-25T06:47:45.003Z,24.15
2022-07-25T06:51:42.016Z,24.27
2022-07-25T06:55:39.180Z,24.41
2022-07-25T06:59:36.335Z,24.67
2022-07-25T07:03:38.356Z,24.93
2022-07-25T07:07:35.524Z,25.22
2022-07-25T07:11:34.858Z,25.56
2022-07-25T07:15:34.385Z,25.56
2022-07-25T07:19:31.705Z,25.79
2022-07-25T07:23:32.313Z,26.04
2022-07-25T07:27:30.082Z,26.42
2022-07-25T07:31:27.146Z,26.47
2022-07-25T07:35:25.467Z,26.70
2022-07-25T07:39:24.587Z,26.67
2022-07-25T07:43:25.039Z,27.02
2022-07-25T07:47:26.104Z,27.21
2022-07-25T07:51:23.193Z,27.33
2022-07-25T07:55:39.768Z,27.56
2022-07-25T07:59:36.895Z,27.54
2022-07-25T08:03:34.107Z,28.08
2022-07-25T08:07:31.276Z,28.65
2022-07-25T08:11:28.288Z,29.49
2022-07-25T08:15:26.445Z,30.51
2022-07-25T08:19:23.431Z,31.36
2022-07-25T08:23:20.643Z,31.84
2022-07-25T08:27:17.721Z,32.60
2022-07-25T08:31:14.855Z,33.82
2022-07-25T08:35:12.038Z,34.24
2022-07-25T08:39:09.049Z,34.17
2022-07-25T08:43:06.315Z,34.45
2022-07-25T08:47:03.793Z,34.61
2022-07-25T08:51:02.722Z,34.73
2022-07-25T08:54:59.897Z,34.75
2022-07-25T08:58:59.020Z,34.82
2022-07-25T09:03:06.542Z,35.38
2022-07-25T09:07:08.021Z,35.46
2022-07-25T09:11:05.554Z,35.16
2022-07-25T09:15:02.637Z,35.44
2022-07-25T09:19:21.329Z,34.94
2022-07-25T09:23:32.179Z,34.95
2022-07-25T09:27:34.475Z,35.91
2022-07-25T09:31:35.256Z,36.39
2022-07-25T09:35:38.343Z,36.21
2022-07-25T09:39:47.384Z,36.93
2022-07-25T09:43:45.619Z,36.61
2022-07-25T09:47:57.559Z,37.38
2022-07-25T09:51:55.294Z,37.57
2022-07-25T09:55:57.151Z,37.72
2022-07-25T09:59:54.666Z,37.40
2022-07-25T10:04:01.237Z,37.94
2022-07-25T10:07:58.791Z,37.90
2022-07-25T10:12:08.678Z,38.04
2022-07-25T10:16:20.531Z,38.40
2022-07-25T10:20:28.696Z,38.86
2022-07-25T10:24:35.021Z,39.21
2022-07-25T10:28:45.376Z,38.41
2022-07-25T10:33:04.497Z,38.85
2022-07-25T10:37:18.529Z,40.07
2022-07-25T10:41:19.297Z,40.84
2022-07-25T10:45:18.350Z,41.83
2022-07-25T10:49:32.265Z,42.08
2022-07-25T10:53:43.955Z,41.71
2022-07-25T10:57:55.012Z,43.41
2022-07-25T11:01:59.227Z,43.47
2022-07-25T11:05:56.342Z,42.60
2022-07-25T11:10:02.348Z,42.81
2022-07-25T11:13:59.520Z,41.98
2022-07-25T11:17:56.796Z,44.62
2022-07-25T11:21:57.805Z,42.57
2022-07-25T11:26:11.577Z,43.77
2022-07-25T11:30:22.121Z,42.30
2022-07-25T11:34:24.543Z,42.43
2022-07-25T11:38:21.676Z,43.20
2022-07-25T11:42:20.200Z,43.58
2022-07-25T11:46:18.561Z,43.12
2022-07-25T11:50:16.070Z,42.88
2022-07-25T11:54:13.861Z,43.01
2022-07-25T11:58:13.333Z,43.11
2022-07-25T12:02:26.580Z,44.22
2022-07-25T12:06:30.031Z,44.01
2022-07-25T12:10:36.380Z,43.54
2022-07-25T12:14:44.013Z,43.23
2022-07-25T12:18:41.501Z,44.48
2022-07-25T12:22:38.633Z,43.51
2022-07-25T12:26:36.079Z,41.67
2022-07-25T12:30:34.324Z,41.55
2022-07-25T12:34:31.624Z,42.02
2022-07-25T12:38:29.203Z,43.45
2022-07-25T12:42:28.915Z,44.17
2022-07-25T12:46:26.051Z,44.19
2022-07-25T12:50:26.007Z,43.38
2022-07-25T12:54:23.226Z,42.49
2022-07-25T12:58:21.241Z,43.01
2022-07-25T13:02:18.624Z,43.25
2022-07-25T13:06:15.794Z,43.86
2022-07-25T13:10:12.979Z,43.86
2022-07-25T13:14:10.117Z,44.91
2022-07-25T13:18:07.482Z,45.02
2022-07-25T13:22:04.508Z,45.19
2022-07-25T13:26:01.729Z,43.86
2022-07-25T13:29:58.736Z,43.37
2022-07-25T13:33:55.795Z,42.28
2022-07-25T13:37:52.850Z,43.47
2022-07-25T13:41:50.315Z,42.51
2022-07-25T13:45:47.425Z,42.23
2022-07-25T13:49:44.532Z,42.65
2022-07-25T13:53:42.596Z,44.14
2022-07-25T13:57:39.713Z,44.66
2022-07-25T14:01:36.895Z,44.72
2022-07-25T14:05:34.745Z,44.51
2022-07-25T14:09:31.693Z,45.03
2022-07-25T14:13:28.656Z,44.47
2022-07-25T14:17:29.947Z,42.60
2022-07-25T14:21:27.375Z,42.60
2022-07-25T14:25:24.475Z,43.29
2022-07-25T14:29:25.947Z,43.97
2022-07-25T14:33:28.023Z,43.55
2022-07-25T14:37:25.276Z,42.63
2022-07-25T14:41:22.619Z,43.08
2022-07-25T14:45:21.968Z,43.56
2022-07-25T14:49:19.375Z,43.28
2022-07-25T14:53:16.503Z,43.27
2022-07-25T14:57:13.664Z,42.97
2022-07-25T15:01:11.500Z,43.09
2022-07-25T15:05:09.064Z,43.31
2022-07-25T15:09:06.801Z,43.75
2022-07-25T15:13:28.676Z,42.46
2022-07-25T15:17:21.124Z,41.92
2022-07-25T15:21:18.234Z,41.70
2022-07-25T15:25:59.628Z,40.68
2022-07-25T15:29:32.215Z,41.27
2022-07-25T15:33:29.452Z,41.76
2022-07-25T15:37:28.134Z,41.98
2022-07-25T15:41:25.199Z,42.55
2022-07-25T15:45:38.025Z,43.32
2022-07-25T15:49:36.991Z,43.02
2022-07-25T15:53:34.045Z,42.87
2022-07-25T15:57:31.332Z,42.48
2022-07-25T16:01:28.384Z,41.58
2022-07-25T16:05:26.305Z,41.68
2022-07-25T16:09:23.880Z,41.02
2022-07-25T16:13:20.948Z,40.39
2022-07-25T16:17:18.403Z,39.10
2022-07-25T16:21:15.401Z,38.35
2022-07-25T16:25:12.678Z,37.38
2022-07-25T16:29:10.415Z,36.69
2022-07-25T16:33:09.274Z,36.44
2022-07-25T16:37:06.334Z,35.78
2022-07-25T16:41:03.476Z,35.37
2022-07-25T16:45:00.477Z,35.26
2022-07-25T16:48:57.607Z,34.89
2022-07-25T16:52:54.947Z,34.59
2022-07-25T16:56:54.820Z,34.59
2022-07-25T17:00:53.589Z,34.36
2022-07-25T17:04:50.598Z,34.09
2022-07-25T17:08:47.652Z,33.96
2022-07-25T17:12:44.621Z,33.98
2022-07-25T17:16:42.001Z,33.61
2022-07-25T17:20:39.019Z,33.76
2022-07-25T17:24:36.918Z,33.60
2022-07-25T17:28:34.988Z,33.17
2022-07-25T17:32:32.058Z,32.77
2022-07-25T17:36:29.174Z,32.63
2022-07-25T17:40:26.492Z,33.38
2022-07-25T17:44:23.418Z,33.75
2022-07-25T17:48:20.447Z,33.99
2022-07-25T17:52:17.997Z,33.05
2022-07-25T17:56:15.081Z,32.63
2022-07-25T18:00:13.736Z,32.61
2022-07-25T18:04:11.357Z,32.70
2022-07-25T18:08:10.464Z,32.68
2022-07-25T18:12:07.767Z,32.85
2022-07-25T18:16:05.347Z,32.84
2022-07-25T18:20:03.913Z,32.56
2022-07-25T18:24:01.007Z,32.41
2022-07-25T18:27:58.041Z,32.27
2022-07-25T18:31:55.013Z,32.17
2022-07-25T18:35:52.189Z,32.01
2022-07-25T18:39:49.178Z,31.90
2022-07-25T18:43:46.636Z,31.97
2022-07-25T18:47:45.227Z,31.73
2022-07-25T18:51:42.297Z,31.60
2022-07-25T18:55:39.417Z,31.36
2022-07-25T18:59:36.605Z,31.14
2022-07-25T19:03:34.954Z,30.72
2022-07-25T19:07:33.629Z,30.88
2022-07-25T19:11:30.733Z,30.81
2022-07-25T19:15:28.566Z,30.61
2022-07-25T19:19:27.010Z,30.44
2022-07-25T19:23:24.260Z,30.21
2022-07-25T19:27:23.899Z,30.19
2022-07-25T19:31:21.096Z,30.03
2022-07-25T19:35:25.847Z,29.91
2022-07-25T19:39:24.604Z,29.65
2022-07-25T19:43:21.744Z,29.75
2022-07-25T19:47:18.827Z,29.48
2022-07-25T19:51:15.847Z,29.70
2022-07-25T19:55:12.944Z,29.80
2022-07-25T19:59:10.187Z,29.78
2022-07-25T20:03:07.300Z,29.88
2022-07-25T20:07:04.537Z,29.68
2022-07-25T20:11:01.587Z,29.56
2022-07-25T20:14:58.602Z,29.46
2022-07-25T20:18:55.777Z,29.26
2022-07-25T20:22:53.364Z,29.29
2022-07-25T20:26:50.521Z,29.25
2022-07-25T20:30:47.617Z,28.99
2022-07-25T20:34:45.431Z,28.85
2022-07-25T20:38:42.453Z,28.33
2022-07-25T20:42:40.991Z,27.66
2022-07-25T20:46:39.115Z,27.37
2022-07-25T20:50:37.670Z,27.23
2022-07-25T20:54:36.770Z,27.08
2022-07-25T20:58:33.928Z,26.94
2022-07-25T21:02:30.957Z,26.89
2022-07-25T21:06:29.236Z,26.87
2022-07-25T21:10:28.335Z,26.88
2022-07-25T21:14:26.827Z,27.05
2022-07-25T21:18:23.827Z,27.00
2022-07-25T21:22:20.986Z,26.80
2022-07-25T21:26:18.831Z,26.57
2022-07-25T21:30:15.955Z,26.64
2022-07-25T21:34:12.962Z,26.54
2022-07-25T21:38:10.031Z,26.49
2022-07-25T21:42:09.973Z,26.57
2022-07-25T21:46:07.125Z,26.89
2022-07-25T21:50:24.826Z,27.04
2022-07-25T21:54:22.176Z,27.31
2022-07-25T21:58:21.607Z,27.42
2022-07-25T22:02:20.067Z,27.59
2022-07-25T22:06:17.134Z,27.34
2022-07-25T22:10:16.786Z,27.46
2022-07-25T22:14:15.664Z,27.34
2022-07-25T22:18:12.717Z,27.48
2022-07-25T22:22:09.836Z,27.33
2022-07-25T22:26:06.824Z,27.27
2022-07-25T22:30:05.733Z,27.14
2022-07-25T22:34:02.878Z,26.83
2022-07-25T22:37:59.921Z,26.97
2022-07-25T22:41:57.029Z,26.83
2022-07-25T22:45:54.069Z,26.71
2022-07-25T22:49:51.172Z,26.65
2022-07-25T22:53:48.220Z,26.53
2022-07-25T22:57:45.202Z,26.38
2022-07-25T23:01:42.279Z,26.31
2022-07-25T23:05:40.704Z,26.19
2022-07-25T23:09:37.926Z,26.20
2022-07-25T23:13:36.471Z,26.20
2022-07-25T23:17:33.615Z,26.23
2022-07-25T23:21:30.688Z,26.08
2022-07-25T23:25:27.759Z,26.18
2022-07-25T23:29:24.845Z,26.16
2022-07-25T23:33:25.998Z,25.97
2022-07-25T23:37:23.111Z,25.85
2022-07-25T23:41:20.379Z,25.84
2022-07-25T23:45:17.396Z,25.63
2022-07-25T23:49:16.127Z,25.58
2022-07-25T23:53:13.287Z,25.81
2022-07-25T23:57:10.757Z,25.76
